07/25 20:00 更新

3,000ftに雲が少し
4,500ftに雲が多い

地上風: 150°6kt

上空風
13,000ft: 未計測
10,000ft: 50° 10kt
 7,000ft: 20° 13kt
 3,000ft: 140° 15kt

地上: 29℃
上空: 未計測℃

日没: 18:51

RJTJ 251100Z 15006KT 9999 FEW030 BKN045 29/21 Q1009 RMK 1CU030 5SC045 A2980=